Time;durP1;ratioP1;P1;durP2;ratioP2;P2;SDS_P1;SDS_P2;PMS_P1;PMS_P2;Temp;Humidity;BMP_temperature;BMP_pressure;BME280_temperature;BME280_humidity;BME280_pressure;Samples;Min_cycle;Max_cycle;Signal;HPM_P1;HPM_P2
2022/10/20 00:02:52;;;;;;;10.80;3.55;;;;;;;6.24;89.06;102134.75;10436892;28;20056;-73
2022/10/20 00:07:54;;;;;;;8.10;2.78;;;;;;;6.10;89.00;102129.66;10445476;28;20637;-73
2022/10/20 00:12:56;;;;;;;8.07;3.70;;;;;;;5.99;89.26;102136.84;10437729;28;20034;-73
2022/10/20 00:17:57;;;;;;;9.40;3.47;;;;;;;5.95;89.25;102127.03;10439358;28;20099;-73
2022/10/20 00:22:59;;;;;;;6.50;3.03;;;;;;;5.90;89.25;102117.16;10456750;28;20045;-73
2022/10/20 00:28:00;;;;;;;10.18;3.38;;;;;;;5.80;89.34;102111.44;10448209;28;20485;-73
2022/10/20 00:33:03;;;;;;;9.07;3.38;;;;;;;5.78;89.47;102097.47;10447468;28;20496;-73
2022/10/20 00:38:05;;;;;;;6.30;3.10;;;;;;;5.77;89.54;102079.19;10440283;28;20106;-72
2022/10/20 00:43:14;;;;;;;6.93;3.25;;;;;;;5.76;89.77;102082.59;10446681;28;20045;-73
2022/10/20 00:48:24;;;;;;;6.90;2.97;;;;;;;5.75;89.84;102083.38;10433302;28;20087;-73
2022/10/20 00:53:28;;;;;;;6.63;2.88;;;;;;;5.73;89.93;102070.31;10452045;28;20045;-72
2022/10/20 00:58:30;;;;;;;5.95;2.75;;;;;;;5.73;89.88;102048.63;10442400;28;20461;-72
2022/10/20 01:03:41;;;;;;;11.05;3.42;;;;;;;5.69;89.79;102052.78;10445308;28;20251;-73
2022/10/20 01:08:43;;;;;;;8.70;3.05;;;;;;;5.62;89.98;102050.63;10427935;28;20090;-73
2022/10/20 01:14:03;;;;;;;11.10;2.72;;;;;;;5.57;90.01;102052.03;10447337;28;20051;-72
2022/10/20 01:19:32;;;;;;;6.90;2.57;;;;;;;5.55;90.04;102040.69;10429182;28;20056;-73
2022/10/20 01:24:56;;;;;;;8.25;3.00;;;;;;;5.52;89.89;102032.72;10427393;28;20078;-74
2022/10/20 01:29:58;;;;;;;6.85;2.70;;;;;;;5.46;90.21;102030.66;10444482;28;20041;-72
2022/10/20 01:34:59;;;;;;;10.15;2.85;;;;;;;5.49;90.11;102026.53;10447710;28;20355;-73
2022/10/20 01:40:19;;;;;;;8.00;3.10;;;;;;;5.46;89.92;102015.06;10442120;28;20617;-73
2022/10/20 01:45:24;;;;;;;6.97;3.03;;;;;;;5.53;90.23;102006.81;10445148;28;20055;-73
2022/10/20 01:50:27;;;;;;;8.35;3.00;;;;;;;5.54;90.24;101986.91;10435930;28;20044;-73
2022/10/20 01:55:29;;;;;;;7.40;3.38;;;;;;;5.56;90.16;101982.72;10434350;28;20489;-73
2022/10/20 02:00:35;;;;;;;7.60;3.22;;;;;;;5.49;90.22;101977.19;10435794;28;20476;-73
2022/10/20 02:05:59;;;;;;;7.90;3.60;;;;;;;5.41;89.87;101965.44;10451679;28;20036;-73
2022/10/20 02:11:04;;;;;;;6.82;3.00;;;;;;;5.39;89.81;101967.06;10437012;28;20052;-73
2022/10/20 02:16:14;;;;;;;15.10;3.78;;;;;;;5.35;90.03;101956.41;10438041;28;20029;-73
2022/10/20 02:21:16;;;;;;;13.60;3.20;;;;;;;5.34;89.92;101957.22;10440163;28;20049;-73
2022/10/20 02:26:21;;;;;;;12.10;3.58;;;;;;;5.28;90.07;101955.16;10451494;28;20033;-75
2022/10/20 02:31:23;;;;;;;10.50;4.43;;;;;;;5.32;90.02;101947.63;10440615;28;20365;-73
2022/10/20 02:36:27;;;;;;;9.77;4.07;;;;;;;5.31;90.03;101952.72;10448597;28;20110;-73
2022/10/20 02:41:30;;;;;;;13.68;3.72;;;;;;;5.28;90.09;101939.56;10437681;28;20044;-73
2022/10/20 02:46:31;;;;;;;13.95;3.97;;;;;;;5.26;90.00;101934.28;10434512;28;20033;-73
2022/10/20 02:51:33;;;;;;;10.70;4.55;;;;;;;5.22;89.97;101936.63;10450837;28;20103;-73
2022/10/20 02:56:34;;;;;;;10.50;4.38;;;;;;;5.21;89.78;101922.75;10436480;28;20040;-74
2022/10/20 03:01:36;;;;;;;9.00;3.90;;;;;;;5.14;89.77;101921.50;10428540;28;20119;-74
2022/10/20 03:06:39;;;;;;;10.98;5.30;;;;;;;5.13;90.12;101914.53;10441920;28;20072;-73
2022/10/20 03:11:41;;;;;;;10.82;4.97;;;;;;;5.06;90.14;101908.88;10447357;28;20047;-71
2022/10/20 03:16:42;;;;;;;10.07;4.40;;;;;;;5.07;90.12;101903.78;10428997;28;20043;-71
2022/10/20 03:21:45;;;;;;;8.80;4.30;;;;;;;5.04;90.34;101895.81;10450312;28;20044;-71
2022/10/20 03:26:46;;;;;;;10.10;4.25;;;;;;;4.99;90.08;101886.88;10445478;28;20090;-73
2022/10/20 03:31:48;;;;;;;9.48;4.13;;;;;;;4.94;90.30;101884.03;10449970;28;20109;-74
2022/10/20 03:36:55;;;;;;;10.82;4.80;;;;;;;5.00;90.25;101878.28;10422709;28;20045;-73
2022/10/20 03:41:56;;;;;;;12.00;4.22;;;;;;;4.99;90.32;101881.69;10449953;28;20037;-73
2022/10/20 03:46:59;;;;;;;10.85;5.60;;;;;;;5.02;90.39;101861.09;10453041;28;20504;-73
2022/10/20 03:52:00;;;;;;;11.02;4.38;;;;;;;4.97;90.50;101846.97;10448738;28;20041;-73
2022/10/20 03:57:02;;;;;;;13.05;4.10;;;;;;;4.91;90.59;101846.63;10437997;28;20041;-73
2022/10/20 04:02:39;;;;;;;10.60;4.72;;;;;;;4.96;90.33;101837.38;10448161;28;20056;-73
2022/10/20 04:07:41;;;;;;;13.88;4.75;;;;;;;4.89;90.44;101823.16;10439514;28;20064;-73
2022/10/20 04:12:43;;;;;;;8.27;3.72;;;;;;;4.97;90.47;101818.41;10443883;28;20106;-73
2022/10/20 04:17:44;;;;;;;9.63;4.28;;;;;;;4.95;90.49;101807.94;10436621;28;20095;-73
2022/10/20 04:22:46;;;;;;;10.23;4.15;;;;;;;4.86;90.30;101785.75;10442508;28;20056;-73
2022/10/20 04:27:47;;;;;;;9.95;4.68;;;;;;;4.84;90.48;101774.41;10447826;28;20041;-73
2022/10/20 04:32:49;;;;;;;8.20;3.80;;;;;;;4.91;90.57;101779.13;10451085;28;20525;-73
2022/10/20 04:37:50;;;;;;;9.63;4.18;;;;;;;5.01;90.19;101783.13;10445988;28;20055;-73
2022/10/20 04:42:52;;;;;;;9.55;4.25;;;;;;;5.04;90.42;101786.78;10438971;28;20512;-73
2022/10/20 04:47:53;;;;;;;12.70;4.47;;;;;;;5.07;90.80;101771.38;10441549;28;20048;-73
2022/10/20 04:52:57;;;;;;;8.18;4.15;;;;;;;5.06;90.33;101779.06;10404020;28;20421;-73
2022/10/20 04:57:58;;;;;;;8.43;4.15;;;;;;;5.00;90.25;101739.78;10416634;28;20559;-73
2022/10/20 05:03:00;;;;;;;8.60;4.07;;;;;;;4.95;90.13;101724.88;10417335;28;20045;-74
2022/10/20 05:08:02;;;;;;;9.48;4.45;;;;;;;4.93;90.17;101715.22;10447379;28;20037;-73
2022/10/20 05:13:03;;;;;;;8.95;4.40;;;;;;;4.92;90.24;101703.97;10442382;28;20037;-73
2022/10/20 05:18:05;;;;;;;8.68;4.05;;;;;;;4.85;90.22;101699.22;10438397;28;20461;-71
2022/10/20 05:23:06;;;;;;;11.18;4.30;;;;;;;4.82;90.18;101701.66;10421096;28;20408;-71
2022/10/20 05:28:08;;;;;;;7.78;3.63;;;;;;;4.82;90.36;101705.94;10438199;28;20310;-71
2022/10/20 05:33:09;;;;;;;10.77;5.00;;;;;;;4.82;90.22;101695.56;10446989;28;20107;-71
2022/10/20 05:38:11;;;;;;;11.73;4.53;;;;;;;4.87;90.23;101694.13;10453383;28;20067;-71
2022/10/20 05:43:13;;;;;;;11.10;4.00;;;;;;;4.89;90.21;101701.16;10439021;28;20053;-71
2022/10/20 05:48:17;;;;;;;8.77;3.75;;;;;;;4.91;90.34;101698.69;10434721;28;20040;-71
2022/10/20 05:53:19;;;;;;;8.90;3.28;;;;;;;4.88;90.10;101676.03;10456613;28;20136;-70
2022/10/20 05:58:21;;;;;;;12.05;4.20;;;;;;;4.88;90.13;101669.94;10430234;28;20044;-70
2022/10/20 06:03:23;;;;;;;9.75;3.55;;;;;;;4.89;89.99;101683.00;10451041;28;20047;-70
2022/10/20 06:08:30;;;;;;;9.52;3.83;;;;;;;4.92;89.94;101687.47;10452663;28;20102;-71
2022/10/20 06:13:33;;;;;;;10.10;3.45;;;;;;;4.93;90.03;101690.16;10445564;28;20072;-71
2022/10/20 06:18:37;;;;;;;8.95;3.60;;;;;;;4.95;89.87;101680.75;10440273;28;20040;-71
2022/10/20 06:23:39;;;;;;;8.82;3.45;;;;;;;4.98;89.94;101669.63;10440190;28;20033;-71
2022/10/20 06:28:40;;;;;;;9.15;3.47;;;;;;;5.05;90.05;101661.38;10439350;28;20055;-71
2022/10/20 06:33:43;;;;;;;6.75;3.72;;;;;;;5.16;89.91;101674.03;10439353;28;20131;-73
2022/10/20 06:38:45;;;;;;;9.15;3.95;;;;;;;5.14;89.53;101664.44;10431248;28;20033;-74
2022/10/20 06:43:46;;;;;;;9.27;3.53;;;;;;;5.23;89.62;101648.47;10444961;28;20079;-74
2022/10/20 06:48:48;;;;;;;10.20;3.90;;;;;;;5.31;89.32;101636.78;10450243;28;20098;-74
2022/10/20 06:53:50;;;;;;;8.77;3.53;;;;;;;5.39;89.07;101624.19;10449188;28;20404;-72
2022/10/20 06:58:53;;;;;;;7.55;3.30;;;;;;;5.51;88.95;101618.75;10449045;28;20037;-72
2022/10/20 07:03:57;;;;;;;6.20;2.97;;;;;;;5.65;88.68;101614.22;10438480;28;20095;-71
2022/10/20 07:09:02;;;;;;;9.85;3.55;;;;;;;5.75;88.23;101595.69;10449966;28;20556;-71
2022/10/20 07:14:04;;;;;;;10.52;3.50;;;;;;;5.99;87.96;101597.72;10445060;28;20067;-71
2022/10/20 07:19:06;;;;;;;7.60;3.53;;;;;;;6.25;87.52;101580.78;10445129;28;20087;-71
2022/10/20 07:24:09;;;;;;;6.78;2.78;;;;;;;7.39;86.95;101591.13;10448380;28;20083;-71
2022/10/20 07:29:11;;;;;;;7.80;2.92;;;;;;;8.30;84.92;101587.00;10440498;28;20446;-72
2022/10/20 07:34:15;;;;;;;8.88;3.53;;;;;;;9.44;82.65;101584.19;10431704;28;20044;-72
2022/10/20 07:39:27;;;;;;;10.52;3.45;;;;;;;10.89;79.39;101580.94;10435870;28;20512;-73
2022/10/20 07:44:29;;;;;;;5.82;2.83;;;;;;;10.28;76.36;101572.97;10435468;28;20049;-73
2022/10/20 07:49:30;;;;;;;6.18;2.78;;;;;;;9.15;76.32;101566.66;10416613;28;20041;-74
2022/10/20 07:54:45;;;;;;;8.80;2.78;;;;;;;9.02;76.20;101565.34;10432439;28;20057;-74
2022/10/20 07:59:46;;;;;;;7.35;3.00;;;;;;;9.49;76.43;101566.97;10424869;28;20056;-74
2022/10/20 08:04:49;;;;;;;8.35;3.08;;;;;;;9.15;76.12;101569.28;10447569;28;20106;-74
2022/10/20 08:09:50;;;;;;;7.18;2.90;;;;;;;8.87;76.40;101576.97;10442152;28;20091;-74
2022/10/20 08:14:52;;;;;;;5.22;2.80;;;;;;;8.43;76.88;101567.47;10438391;28;20416;-74
2022/10/20 08:19:54;;;;;;;8.95;3.55;;;;;;;8.31;77.69;101564.41;10434440;28;20051;-74
2022/10/20 08:25:13;;;;;;;5.88;3.17;;;;;;;8.41;77.95;101550.00;10437509;28;20061;-74
2022/10/20 08:30:14;;;;;;;8.93;2.70;;;;;;;8.76;77.98;101545.22;10448495;28;20045;-74
2022/10/20 08:35:25;;;;;;;5.68;2.92;;;;;;;8.82;77.86;101556.78;10448332;28;20292;-74
2022/10/20 08:40:29;;;;;;;9.15;3.15;;;;;;;8.78;78.09;101549.69;10443619;28;20041;-74
2022/10/20 08:45:32;;;;;;;8.07;3.10;;;;;;;8.84;78.06;101528.09;10442324;28;20044;-74
2022/10/20 08:50:44;;;;;;;9.10;3.65;;;;;;;8.93;77.92;101523.25;10433037;28;20290;-75
2022/10/20 08:55:47;;;;;;;7.53;3.40;;;;;;;8.93;78.02;101520.63;10447075;28;20416;-74
2022/10/20 09:00:55;;;;;;;10.60;3.60;;;;;;;8.88;78.23;101514.34;10435130;28;20139;-74
2022/10/20 09:06:26;;;;;;;11.13;3.78;;;;;;;8.98;78.31;101495.53;10442584;28;20044;-74
2022/10/20 09:11:36;;;;;;;13.05;3.75;;;;;;;9.10;78.33;101488.97;10421047;28;20056;-74
2022/10/20 09:16:40;;;;;;;6.72;3.15;;;;;;;9.17;78.53;101485.72;10433526;28;20129;-74
2022/10/20 09:22:05;;;;;;;8.82;3.70;;;;;;;9.13;78.44;101481.25;10431018;28;20045;-74
2022/10/20 09:27:22;;;;;;;8.63;4.10;;;;;;;9.13;78.69;101474.28;10438906;28;20263;-74
2022/10/20 09:32:31;;;;;;;7.30;3.72;;;;;;;9.16;78.69;101494.41;10450397;28;20052;-74
2022/10/20 09:37:57;;;;;;;9.90;3.90;;;;;;;9.34;78.90;101484.56;10445184;28;20045;-74
2022/10/20 09:43:09;;;;;;;7.32;3.72;;;;;;;9.77;78.63;101478.94;10430314;28;20626;-74
2022/10/20 09:48:23;;;;;;;15.27;3.92;;;;;;;10.32;78.06;101464.91;10423137;28;20037;-74
2022/10/20 09:53:34;;;;;;;;;;;;;;;10.64;77.30;101441.38;10421053;28;20036;-74
2022/10/20 09:58:38;;;;;;;8.13;4.25;;;;;;;10.61;76.66;101449.16;10449774;28;20160;-74
2022/10/20 10:03:51;;;;;;;7.47;3.63;;;;;;;10.52;76.23;101430.59;10440553;28;20048;-74
2022/10/20 10:08:54;;;;;;;7.40;3.80;;;;;;;10.76;76.20;101431.28;10438829;28;20047;-74
2022/10/20 10:13:55;;;;;;;12.05;3.90;;;;;;;10.96;76.05;101433.53;10452923;28;20405;-74
2022/10/20 10:19:01;;;;;;;12.10;4.78;;;;;;;10.96;75.57;101423.03;10426987;28;20040;-74
2022/10/20 10:24:03;;;;;;;8.77;4.05;;;;;;;11.08;75.25;101406.72;10428979;28;20569;-73
2022/10/20 10:29:16;;;;;;;8.35;4.13;;;;;;;11.24;75.02;101381.78;10430159;28;20033;-75
2022/10/20 10:34:17;;;;;;;6.25;3.42;;;;;;;11.60;74.72;101372.97;10434994;28;20040;-74
2022/10/20 10:39:19;;;;;;;8.95;4.40;;;;;;;11.69;74.19;101360.06;10422946;28;20036;-74
2022/10/20 10:44:39;;;;;;;11.18;3.50;;;;;;;11.75;73.88;101365.44;10441016;28;20495;-74
2022/10/20 10:50:11;;;;;;;10.63;4.38;;;;;;;11.58;73.31;101356.34;10430928;28;20045;-74
2022/10/20 10:55:24;;;;;;;9.38;4.07;;;;;;;11.43;73.29;101342.03;10399752;28;20042;-74
2022/10/20 11:00:56;;;;;;;10.20;4.35;;;;;;;11.37;73.35;101336.63;10428072;28;20098;-74
2022/10/20 11:06:46;;;;;;;7.63;4.00;;;;;;;11.56;73.60;101331.78;10438723;28;20504;-74
2022/10/20 11:11:56;;;;;;;7.60;4.15;;;;;;;11.59;73.46;101331.84;10257685;28;20241;-74
2022/10/20 11:17:15;;;;;;;6.43;3.50;;;;;;;11.72;73.12;101317.28;10413050;28;20519;-73
2022/10/20 11:22:29;;;;;;;7.82;4.22;;;;;;;11.77;73.16;101311.28;10440995;28;20496;-73
2022/10/20 11:27:35;;;;;;;7.30;4.10;;;;;;;11.81;73.18;101297.38;10434456;28;20041;-73
2022/10/20 11:32:41;;;;;;;9.75;4.50;;;;;;;11.82;73.15;101274.63;10437340;28;20040;-73
2022/10/20 11:37:48;;;;;;;8.95;4.13;;;;;;;11.85;73.29;101283.44;10445389;28;20045;-73
2022/10/20 11:43:17;;;;;;;11.10;4.13;;;;;;;11.79;73.34;101283.31;10432834;28;20048;-73
2022/10/20 11:48:27;;;;;;;9.30;4.63;;;;;;;11.94;73.56;101277.53;10438500;28;20033;-73
2022/10/20 11:53:35;;;;;;;8.38;4.38;;;;;;;11.97;73.56;101267.09;10431728;28;20052;-73
2022/10/20 11:59:01;;;;;;;8.10;4.15;;;;;;;12.05;73.35;101254.09;10447306;28;20049;-73
2022/10/20 12:04:31;;;;;;;10.13;4.03;;;;;;;12.04;73.23;101244.47;10451251;28;20049;-73
2022/10/20 12:09:51;;;;;;;9.73;4.33;;;;;;;12.17;73.21;101225.47;10425547;28;20059;-73
2022/10/20 12:14:58;;;;;;;12.07;4.40;;;;;;;12.31;73.24;101232.69;10440670;28;20132;-73
2022/10/20 12:20:21;;;;;;;9.85;4.38;;;;;;;12.24;72.99;101246.59;10425904;28;20397;-73
2022/10/20 12:25:26;;;;;;;8.05;4.40;;;;;;;12.41;72.69;101253.00;10453945;28;20059;-72
2022/10/20 12:30:36;;;;;;;8.25;3.90;;;;;;;12.61;72.56;101229.69;10429760;28;20038;-73
2022/10/20 12:35:58;;;;;;;9.95;4.90;;;;;;;12.65;72.00;101209.59;10441004;28;20030;-72
2022/10/20 12:41:01;;;;;;;8.70;4.32;;;;;;;12.79;72.05;101230.81;10445058;28;20067;-72
2022/10/20 12:46:07;;;;;;;11.05;4.50;;;;;;;12.90;71.66;101232.75;10444527;28;20048;-73
2022/10/20 12:51:47;;;;;;;8.65;4.38;;;;;;;12.94;71.48;101227.53;10441022;28;21157;-72
2022/10/20 12:56:50;;;;;;;9.52;4.13;;;;;;;12.94;71.09;101217.94;10433123;28;20068;-72
2022/10/20 13:02:07;;;;;;;11.82;4.30;;;;;;;13.04;71.22;101226.81;10454833;28;20077;-74
2022/10/20 13:07:08;;;;;;;9.23;4.60;;;;;;;12.97;71.22;101232.84;10461679;28;20689;-73
2022/10/20 13:12:27;;;;;;;9.15;4.22;;;;;;;12.89;71.54;101228.34;10459481;28;20389;-72
2022/10/20 13:17:44;;;;;;;7.80;3.92;;;;;;;12.93;71.73;101224.03;10457802;28;20098;-72
2022/10/20 13:22:50;;;;;;;11.57;4.70;;;;;;;12.86;71.57;101212.53;10453252;28;20048;-72
2022/10/20 13:28:02;;;;;;;9.82;4.00;;;;;;;12.85;71.93;101202.91;10442393;28;20063;-74
2022/10/20 13:33:16;;;;;;;8.95;4.00;;;;;;;12.80;71.80;101199.31;10464180;28;20415;-72
2022/10/20 13:38:46;;;;;;;11.82;4.18;;;;;;;12.77;71.94;101199.25;10436745;28;20036;-72
2022/10/20 13:43:57;;;;;;;8.60;3.97;;;;;;;12.77;72.06;101206.28;10440009;28;20118;-72
2022/10/20 13:49:03;;;;;;;12.07;3.83;;;;;;;12.74;71.98;101183.44;10454545;28;20045;-73
2022/10/20 13:54:05;;;;;;;10.40;4.85;;;;;;;12.66;72.13;101185.09;10449480;28;20044;-73
2022/10/20 13:59:13;;;;;;;8.70;4.18;;;;;;;12.60;72.31;101183.25;10436642;28;20068;-73
2022/10/20 14:04:31;;;;;;;8.85;3.78;;;;;;;12.59;72.41;101188.50;10429354;28;20052;-74
2022/10/20 14:09:33;;;;;;;7.75;3.78;;;;;;;12.51;72.59;101188.38;10432630;28;20045;-73
2022/10/20 14:14:35;;;;;;;9.98;4.25;;;;;;;12.47;73.04;101205.81;10445080;28;20044;-74
2022/10/20 14:19:37;;;;;;;9.88;3.58;;;;;;;12.41;73.68;101192.59;10439918;28;20039;-76
2022/10/20 14:24:46;;;;;;;7.07;3.65;;;;;;;12.21;74.85;101192.28;10450143;28;20452;-78
2022/10/20 14:29:52;;;;;;;11.63;4.13;;;;;;;12.04;76.10;101194.63;10432925;28;20050;-82
2022/10/20 14:34:56;;;;;;;9.05;5.00;;;;;;;11.91;77.19;101198.72;10444510;28;20069;-81
2022/10/20 14:40:00;;;;;;;9.02;4.22;;;;;;;11.74;78.48;101187.00;10429816;28;20044;-76
2022/10/20 14:45:03;;;;;;;11.15;5.05;;;;;;;11.56;79.90;101187.53;10443252;28;20429;-77
2022/10/20 14:50:05;;;;;;;8.55;4.45;;;;;;;11.44;80.61;101189.09;10442343;28;20049;-76
2022/10/20 14:55:26;;;;;;;8.35;4.18;;;;;;;11.37;81.58;101192.44;10444149;28;20049;-77
2022/10/20 15:00:31;;;;;;;12.55;5.60;;;;;;;11.32;82.25;101184.47;10460130;28;20045;-78
2022/10/20 15:05:39;;;;;;;11.13;5.43;;;;;;;11.21;83.12;101174.63;10452807;28;20044;-79
2022/10/20 15:10:41;;;;;;;10.80;5.50;;;;;;;11.18;83.64;101164.94;10477247;28;20037;-80
2022/10/20 15:15:43;;;;;;;15.05;6.00;;;;;;;11.07;84.08;101141.16;10465458;28;20045;-80
2022/10/20 15:20:49;;;;;;;15.23;6.32;;;;;;;11.03;84.62;101141.94;10472645;28;20060;-80
2022/10/20 15:25:52;;;;;;;15.25;7.35;;;;;;;11.03;84.98;101136.69;10467828;28;20045;-78
2022/10/20 15:30:54;;;;;;;11.20;5.72;;;;;;;11.00;85.41;101134.00;10484383;28;20504;-79
2022/10/20 15:35:56;;;;;;;12.15;6.20;;;;;;;10.99;85.95;101124.41;10464572;28;20059;-80
2022/10/20 15:40:59;;;;;;;13.43;5.72;;;;;;;10.98;86.43;101114.75;10454542;28;20084;-80
2022/10/20 15:46:10;;;;;;;10.40;5.57;;;;;;;10.92;86.60;101114.63;10471517;28;20508;-78
2022/10/20 15:51:26;;;;;;;15.27;6.32;;;;;;;10.90;87.08;101103.22;10444955;28;20102;-78
2022/10/20 15:56:31;;;;;;;11.77;5.82;;;;;;;10.88;87.28;101112.78;10464682;28;20043;-78
2022/10/20 16:01:33;;;;;;;15.38;5.97;;;;;;;10.85;87.63;101089.16;10490940;28;20659;-80
2022/10/20 16:06:36;;;;;;;11.70;5.97;;;;;;;10.70;88.00;101055.66;10451609;28;20472;-81
2022/10/20 16:11:39;;;;;;;13.32;6.50;;;;;;;10.68;88.37;101068.72;10457714;28;20071;-80
2022/10/20 16:16:41;;;;;;;10.13;5.13;;;;;;;10.73;88.60;101095.00;10470305;28;20102;-81
2022/10/20 16:21:44;;;;;;;11.95;5.55;;;;;;;10.71;88.75;101089.75;10443517;28;20079;-80
2022/10/20 16:26:47;;;;;;;9.50;5.55;;;;;;;10.68;89.16;101071.34;10467324;28;20052;-81
2022/10/20 16:31:49;;;;;;;12.23;7.05;;;;;;;10.61;89.27;101051.13;10453859;28;20080;-80
2022/10/20 16:36:51;;;;;;;12.02;7.05;;;;;;;10.56;89.86;101052.75;10463207;28;20049;-80
2022/10/20 16:42:08;;;;;;;13.82;6.72;;;;;;;10.63;89.92;101062.53;10489154;28;20055;-80
2022/10/20 16:47:25;;;;;;;16.33;6.75;;;;;;;10.64;90.34;101053.78;10458672;28;20037;-81
2022/10/20 16:52:26;;;;;;;14.15;6.95;;;;;;;10.61;90.29;101038.03;10458944;28;20497;-81
2022/10/20 16:57:32;;;;;;;13.40;6.93;;;;;;;10.65;90.54;101028.50;10454592;28;20097;-81
2022/10/20 17:02:35;;;;;;;15.88;6.78;;;;;;;10.64;90.56;101034.59;10457795;28;20450;-80
2022/10/20 17:07:37;;;;;;;14.20;6.88;;;;;;;10.64;90.72;101032.84;10477679;28;20045;-81
2022/10/20 17:12:39;;;;;;;11.35;6.15;;;;;;;10.64;90.88;101017.13;10479530;28;20135;-80
2022/10/20 17:17:41;;;;;;;14.90;6.80;;;;;;;10.63;90.83;101004.91;10458440;28;20037;-81
2022/10/20 17:22:43;;;;;;;12.98;6.78;;;;;;;10.67;90.95;101017.19;10442367;28;20045;-81
2022/10/20 17:27:45;;;;;;;15.98;6.22;;;;;;;10.70;90.86;101017.25;10460086;28;20049;-82
2022/10/20 17:32:47;;;;;;;10.85;6.22;;;;;;;10.72;90.85;101023.44;10445706;28;20052;-81
2022/10/20 17:37:48;;;;;;;12.23;6.30;;;;;;;10.75;90.77;101014.75;10464738;28;20075;-81
2022/10/20 17:42:50;;;;;;;15.05;6.28;;;;;;;10.82;90.92;101016.63;10446157;28;20672;-81
2022/10/20 17:47:53;;;;;;;10.73;6.18;;;;;;;10.88;90.80;101008.00;10462562;28;20056;-80
2022/10/20 17:52:55;;;;;;;12.90;6.88;;;;;;;10.91;90.44;101014.22;10435759;28;20055;-80
2022/10/20 17:57:56;;;;;;;10.20;5.95;;;;;;;10.94;90.52;101036.94;10465548;28;20136;-80
2022/10/20 18:03:02;;;;;;;11.30;7.03;;;;;;;10.97;90.70;101013.41;10472934;28;20049;-80
2022/10/20 18:08:04;;;;;;;12.18;6.45;;;;;;;11.04;90.69;101014.44;10465893;28;20048;-80
2022/10/20 18:13:06;;;;;;;11.98;6.18;;;;;;;10.98;90.35;101001.22;10473624;28;20052;-79
2022/10/20 18:18:08;;;;;;;12.13;6.82;;;;;;;11.03;90.58;101005.66;10458189;28;20046;-80
2022/10/20 18:23:10;;;;;;;12.38;6.45;;;;;;;11.06;90.71;101005.72;10470709;28;20074;-80
2022/10/20 18:28:15;;;;;;;15.25;8.13;;;;;;;11.06;90.59;101010.97;10475261;28;20391;-80
2022/10/20 18:33:21;;;;;;;17.90;6.32;;;;;;;11.04;90.70;101012.69;10460919;28;20063;-79
2022/10/20 18:38:23;;;;;;;18.58;8.07;;;;;;;11.02;90.73;101008.25;10474113;28;20047;-79
2022/10/20 18:43:25;;;;;;;13.82;6.85;;;;;;;11.07;90.81;101004.88;10472864;28;20052;-78
2022/10/20 18:48:27;;;;;;;25.50;7.97;;;;;;;11.07;90.89;101010.13;10453210;28;20071;-78
2022/10/20 18:53:30;;;;;;;15.23;8.32;;;;;;;11.09;90.96;100995.31;10470140;28;20040;-79
2022/10/20 18:58:37;;;;;;;13.77;7.60;;;;;;;11.14;91.17;100982.31;10460016;28;20037;-78
2022/10/20 19:03:39;;;;;;;15.77;8.10;;;;;;;11.12;91.25;100979.66;10462468;28;20052;-78
2022/10/20 19:08:41;;;;;;;12.32;7.18;;;;;;;11.13;91.31;100986.63;10453196;28;20117;-78
2022/10/20 19:13:43;;;;;;;14.07;7.63;;;;;;;11.09;91.40;100978.69;10470569;28;20423;-78
2022/10/20 19:18:47;;;;;;;12.63;6.72;;;;;;;11.09;91.44;100979.59;10454819;28;20254;-77
2022/10/20 19:23:54;;;;;;;13.30;7.05;;;;;;;11.10;91.63;100970.88;10455615;28;20045;-77
2022/10/20 19:29:17;;;;;;;13.63;7.43;;;;;;;10.97;91.56;100961.00;10450672;28;20045;-77
2022/10/20 19:34:22;;;;;;;14.32;7.72;;;;;;;10.92;91.71;100965.28;10439950;28;20495;-77
2022/10/20 19:39:27;;;;;;;11.07;7.03;;;;;;;10.84;91.93;100951.16;10449043;28;20037;-78
2022/10/20 19:44:29;;;;;;;14.00;7.53;;;;;;;10.75;92.32;100947.53;10436573;28;20077;-78
2022/10/20 19:49:31;;;;;;;14.10;7.57;;;;;;;10.70;92.37;100943.03;10441656;28;20044;-78
2022/10/20 19:54:33;;;;;;;16.42;7.97;;;;;;;10.69;92.65;100933.41;10467961;28;20068;-77
2022/10/20 19:59:35;;;;;;;14.80;7.22;;;;;;;10.66;93.04;100938.59;10442767;28;20492;-77
2022/10/20 20:04:36;;;;;;;12.88;6.80;;;;;;;10.64;92.86;100932.47;10467701;28;20764;-77
2022/10/20 20:09:38;;;;;;;26.88;8.90;;;;;;;10.55;93.21;100938.41;10441937;28;20047;-77
2022/10/20 20:14:39;;;;;;;13.27;7.85;;;;;;;10.50;93.23;100926.97;10467477;28;20041;-77
2022/10/20 20:19:41;;;;;;;13.95;8.20;;;;;;;10.51;93.35;100931.31;10470201;28;20043;-77
2022/10/20 20:24:43;;;;;;;15.75;8.05;;;;;;;10.47;93.51;100917.31;10450956;28;20052;-77
2022/10/20 20:29:44;;;;;;;16.52;8.98;;;;;;;10.39;93.84;100922.41;10466628;28;20040;-77
2022/10/20 20:34:46;;;;;;;18.63;8.68;;;;;;;10.34;93.91;100918.78;10449282;28;20053;-77
2022/10/20 20:39:48;;;;;;;14.15;8.15;;;;;;;10.31;94.11;100916.06;10460562;28;20080;-77
2022/10/20 20:44:51;;;;;;;18.90;8.57;;;;;;;10.24;94.25;100904.63;10466433;28;20051;-77
2022/10/20 20:49:53;;;;;;;18.65;9.48;;;;;;;10.21;94.45;100908.91;10444305;28;20048;-77
2022/10/20 20:54:55;;;;;;;14.43;8.27;;;;;;;10.20;94.50;100907.13;10459254;28;20139;-77
2022/10/20 20:59:56;;;;;;;20.25;9.10;;;;;;;10.20;94.49;100923.72;10459348;28;20056;-77
2022/10/20 21:04:58;;;;;;;16.23;9.25;;;;;;;10.12;94.94;100933.16;10463886;28;20048;-77
2022/10/20 21:10:00;;;;;;;18.10;9.85;;;;;;;9.99;94.98;100921.53;10441888;28;20567;-77
2022/10/20 21:15:02;;;;;;;18.20;9.73;;;;;;;9.98;95.21;100909.28;10434514;28;20052;-77
2022/10/20 21:20:04;;;;;;;17.25;9.57;;;;;;;9.95;95.31;100895.28;10421906;28;20124;-77
2022/10/20 21:25:06;;;;;;;16.65;9.50;;;;;;;9.94;95.30;100909.19;10446993;28;20564;-77
2022/10/20 21:30:08;;;;;;;17.55;9.43;;;;;;;9.91;95.45;100908.28;10433540;28;20053;-77
2022/10/20 21:35:10;;;;;;;18.48;9.07;;;;;;;9.87;95.54;100916.03;10450694;28;20045;-77
2022/10/20 21:40:11;;;;;;;15.65;8.77;;;;;;;9.83;96.15;100917.72;10455067;28;20052;-77
2022/10/20 21:45:13;;;;;;;19.10;10.35;;;;;;;9.84;95.98;100905.50;10449518;28;20056;-77
2022/10/20 21:50:19;;;;;;;18.67;10.25;;;;;;;9.84;95.99;100913.34;10444223;28;20039;-77
2022/10/20 21:55:21;;;;;;;17.90;9.85;;;;;;;9.85;96.16;100902.06;10456412;28;20044;-78
2022/10/20 22:00:22;;;;;;;19.70;9.70;;;;;;;9.83;96.33;100907.25;10459859;28;20404;-78
2022/10/20 22:05:24;;;;;;;20.10;10.98;;;;;;;9.84;96.57;100909.00;10446729;28;20045;-78
2022/10/20 22:10:26;;;;;;;18.38;9.77;;;;;;;9.80;96.80;100924.59;10452908;28;20314;-77
2022/10/20 22:15:27;;;;;;;19.33;9.68;;;;;;;9.70;96.85;100921.75;10463453;28;20044;-77
2022/10/20 22:20:29;;;;;;;16.75;9.60;;;;;;;9.74;96.81;100909.63;10456839;28;20052;-77
2022/10/20 22:25:37;;;;;;;16.30;9.25;;;;;;;9.73;97.08;100907.88;10461139;28;20503;-78
2022/10/20 22:30:39;;;;;;;17.08;10.02;;;;;;;9.70;97.24;100892.13;10463653;28;20158;-77
2022/10/20 22:35:40;;;;;;;18.55;10.20;;;;;;;9.75;97.45;100905.31;10440395;28;20037;-77
2022/10/20 22:40:42;;;;;;;21.60;10.20;;;;;;;9.76;97.14;100901.81;10426809;28;20493;-77
2022/10/20 22:45:43;;;;;;;24.35;10.88;;;;;;;9.75;97.38;100902.69;10466950;28;20053;-77
2022/10/20 22:50:45;;;;;;;17.13;9.90;;;;;;;9.80;97.34;100901.03;10448438;28;20132;-77
2022/10/20 22:55:47;;;;;;;22.88;10.15;;;;;;;9.79;97.61;100892.34;10440732;28;20155;-78
2022/10/20 23:00:49;;;;;;;23.77;11.00;;;;;;;9.87;97.42;100884.66;10444900;28;20095;-77
2022/10/20 23:05:51;;;;;;;29.50;10.52;;;;;;;9.87;97.87;100874.19;10444680;28;20054;-78
2022/10/20 23:10:57;;;;;;;17.65;10.43;;;;;;;9.99;97.79;100879.66;10457918;28;20266;-77
2022/10/20 23:15:59;;;;;;;20.70;10.55;;;;;;;10.09;98.04;100875.53;10454205;28;20052;-78
2022/10/20 23:21:01;;;;;;;22.00;10.23;;;;;;;10.19;98.00;100881.81;10460858;28;20036;-77
2022/10/20 23:26:04;;;;;;;20.33;10.80;;;;;;;10.32;98.20;100872.47;10425595;28;20052;-77